Time;durP1;ratioP1;P1;durP2;ratioP2;P2;SDS_P1;SDS_P2;PMS_P1;PMS_P2;Temp;Humidity;BMP_temperature;BMP_pressure;BME280_temperature;BME280_humidity;BME280_pressure;Samples;Min_cycle;Max_cycle;Signal;HPM_P1;HPM_P2
2023/06/29 00:00:16;;;;;;;2.85;2.65;;;18.70;61.00;;;;;;899093;157;27556;-76
2023/06/29 00:02:42;;;;;;;3.08;2.85;;;18.70;61.20;;;;;;898609;155;27345;-76
2023/06/29 00:05:09;;;;;;;2.87;2.55;;;18.70;61.40;;;;;;899880;155;27440;-76
2023/06/29 00:07:35;;;;;;;2.87;2.60;;;18.60;61.40;;;;;;899127;155;27420;-76
2023/06/29 00:10:02;;;;;;;2.90;2.60;;;18.60;61.50;;;;;;898809;155;27790;-76
2023/06/29 00:12:28;;;;;;;2.58;2.37;;;18.60;61.50;;;;;;899244;155;27440;-76
2023/06/29 00:14:55;;;;;;;5.53;2.72;;;18.60;61.70;;;;;;899487;155;27463;-76
2023/06/29 00:17:21;;;;;;;2.90;2.50;;;18.50;61.80;;;;;;898070;155;27499;-76
2023/06/29 00:19:48;;;;;;;2.90;2.70;;;18.50;62.00;;;;;;897862;155;27433;-76
2023/06/29 00:22:15;;;;;;;2.83;2.60;;;18.50;62.00;;;;;;897882;155;27366;-76
2023/06/29 00:24:44;;;;;;;3.10;2.80;;;18.50;62.10;;;;;;897892;155;27438;-76
2023/06/29 00:27:14;;;;;;;2.80;2.60;;;18.40;62.10;;;;;;898644;155;27453;-76
2023/06/29 00:29:40;;;;;;;3.05;2.30;;;18.40;62.30;;;;;;900244;155;27546;-76
2023/06/29 00:32:07;;;;;;;3.47;2.70;;;18.40;62.50;;;;;;899608;155;27387;-76
2023/06/29 00:34:33;;;;;;;2.75;2.55;;;18.30;62.60;;;;;;898098;155;27361;-76
2023/06/29 00:37:00;;;;;;;2.92;2.72;;;18.30;62.80;;;;;;897479;155;27494;-76
2023/06/29 00:39:27;;;;;;;3.00;2.80;;;18.30;62.90;;;;;;902182;157;27493;-76
2023/06/29 00:41:53;;;;;;;3.77;3.10;;;18.30;63.10;;;;;;900142;155;27436;-76
2023/06/29 00:44:20;;;;;;;3.15;2.90;;;18.20;63.40;;;;;;898365;155;27325;-76
2023/06/29 00:46:46;;;;;;;5.15;2.92;;;18.20;63.30;;;;;;899827;155;27374;-76
2023/06/29 00:49:13;;;;;;;2.62;2.42;;;18.20;63.40;;;;;;898357;155;27370;-76
2023/06/29 00:51:40;;;;;;;4.03;3.27;;;18.20;63.50;;;;;;901288;155;27509;-76
2023/06/29 00:54:06;;;;;;;2.85;2.58;;;18.10;63.60;;;;;;899915;155;27494;-76
2023/06/29 00:56:33;;;;;;;3.17;2.87;;;18.10;63.80;;;;;;898242;155;27470;-76
2023/06/29 00:58:59;;;;;;;2.90;2.55;;;18.10;64.00;;;;;;898541;155;27358;-76
2023/06/29 01:01:27;;;;;;;2.80;2.60;;;18.00;64.00;;;;;;898058;157;27407;-76
2023/06/29 01:03:53;;;;;;;2.72;2.52;;;18.00;64.20;;;;;;897494;155;27366;-76
2023/06/29 01:06:19;;;;;;;3.37;3.08;;;18.00;64.30;;;;;;900914;155;27341;-76
2023/06/29 01:08:46;;;;;;;3.40;3.10;;;17.90;64.50;;;;;;896483;155;27407;-76
2023/06/29 01:11:12;;;;;;;3.40;3.10;;;17.90;64.70;;;;;;898587;155;27751;-76
2023/06/29 01:13:39;;;;;;;2.80;2.52;;;17.90;64.70;;;;;;897584;155;27389;-76
2023/06/29 01:16:05;;;;;;;2.72;2.52;;;17.90;64.80;;;;;;898025;155;27406;-76
2023/06/29 01:18:32;;;;;;;3.85;3.08;;;17.80;64.80;;;;;;898484;155;27376;-76
2023/06/29 01:20:59;;;;;;;3.85;2.90;;;17.80;65.00;;;;;;897780;155;27462;-76
2023/06/29 01:23:25;;;;;;;4.33;3.30;;;17.80;65.10;;;;;;898220;155;27507;-76
2023/06/29 01:25:52;;;;;;;4.83;2.50;;;17.80;65.10;;;;;;897777;155;27392;-76
2023/06/29 01:28:18;;;;;;;3.62;2.77;;;17.80;65.10;;;;;;899337;155;27396;-76
2023/06/29 01:30:51;;;;;;;3.02;2.70;;;17.80;65.20;;;;;;898871;155;27371;-76
2023/06/29 01:33:18;;;;;;;3.20;2.60;;;17.80;66.10;;;;;;897930;155;27967;-76
2023/06/29 01:35:44;;;;;;;3.22;2.77;;;17.70;65.30;;;;;;899597;154;27449;-76
2023/06/29 01:38:20;;;;;;;4.30;3.10;;;17.70;65.50;;;;;;899198;154;27523;-76
2023/06/29 01:40:46;;;;;;;4.45;2.92;;;17.70;65.50;;;;;;899162;155;27417;-75
2023/06/29 01:43:13;;;;;;;3.37;2.80;;;17.60;65.40;;;;;;899771;155;27368;-75
2023/06/29 01:45:39;;;;;;;4.85;2.87;;;17.60;65.50;;;;;;898536;155;27472;-75
2023/06/29 01:48:06;;;;;;;2.97;2.50;;;17.60;65.60;;;;;;899993;155;27512;-75
2023/06/29 01:50:33;;;;;;;3.20;2.92;;;17.60;65.70;;;;;;902227;157;27366;-75
2023/06/29 01:52:59;;;;;;;3.33;3.03;;;17.50;65.90;;;;;;898107;155;27375;-75
2023/06/29 01:55:26;;;;;;;3.10;2.80;;;17.50;66.00;;;;;;900735;155;27424;-76
2023/06/29 01:57:52;;;;;;;3.72;3.17;;;17.50;66.30;;;;;;898988;155;27495;-75
2023/06/29 02:00:20;;;;;;;3.63;3.10;;;17.40;66.20;;;;;;898679;157;27481;-75
2023/06/29 02:02:46;;;;;;;3.20;2.85;;;17.40;66.40;;;;;;899613;155;27466;-75
2023/06/29 02:05:12;;;;;;;3.25;2.92;;;17.40;66.60;;;;;;897574;155;27482;-75
2023/06/29 02:07:39;;;;;;;3.40;3.10;;;17.40;66.70;;;;;;897828;157;27422;-75
2023/06/29 02:10:06;;;;;;;3.10;2.87;;;17.30;66.70;;;;;;898074;155;27432;-75
2023/06/29 02:12:32;;;;;;;3.60;3.30;;;17.30;66.80;;;;;;897558;155;27514;-75
2023/06/29 02:14:59;;;;;;;3.65;3.00;;;17.30;66.90;;;;;;899644;155;27458;-75
2023/06/29 02:17:25;;;;;;;3.47;3.27;;;17.30;67.10;;;;;;899141;155;27557;-75
2023/06/29 02:19:52;;;;;;;3.30;3.02;;;17.20;67.20;;;;;;897073;155;27409;-75
2023/06/29 02:22:18;;;;;;;5.47;2.98;;;17.20;67.40;;;;;;898368;155;27521;-75
2023/06/29 02:24:45;;;;;;;3.50;2.97;;;17.20;67.40;;;;;;897566;157;27566;-75
2023/06/29 02:27:12;;;;;;;4.20;3.08;;;17.20;67.60;;;;;;898721;155;27514;-76
2023/06/29 02:29:38;;;;;;;3.42;3.12;;;17.20;67.70;;;;;;899936;155;27468;-75
2023/06/29 02:32:05;;;;;;;3.60;3.08;;;17.10;67.70;;;;;;899964;155;27484;-75
2023/06/29 02:34:31;;;;;;;2.90;2.70;;;17.10;67.80;;;;;;899142;155;27439;-75
2023/06/29 02:36:58;;;;;;;5.42;4.22;;;17.10;68.00;;;;;;898568;155;27532;-75
2023/06/29 02:39:25;;;;;;;3.47;3.17;;;17.10;68.10;;;;;;900390;155;27412;-75
2023/06/29 02:41:51;;;;;;;3.72;3.10;;;17.10;68.30;;;;;;897369;155;27394;-74
2023/06/29 02:44:18;;;;;;;4.35;3.17;;;17.00;68.50;;;;;;900133;155;27402;-74
2023/06/29 02:46:44;;;;;;;3.50;3.20;;;17.00;68.60;;;;;;898601;155;27462;-74
2023/06/29 02:49:11;;;;;;;3.60;3.33;;;17.00;68.70;;;;;;901462;155;27405;-74
2023/06/29 02:51:38;;;;;;;3.50;3.20;;;17.00;68.80;;;;;;897287;155;27476;-74
2023/06/29 02:54:04;;;;;;;5.67;3.67;;;16.90;68.80;;;;;;899661;155;27417;-74
2023/06/29 02:56:31;;;;;;;3.85;3.35;;;16.90;69.70;;;;;;897362;155;27823;-74
2023/06/29 02:58:57;;;;;;;4.13;3.30;;;16.90;69.00;;;;;;898371;155;27440;-74
2023/06/29 03:01:24;;;;;;;3.57;3.27;;;16.90;69.20;;;;;;899435;155;27379;-74
2023/06/29 03:03:51;;;;;;;4.42;3.15;;;16.90;69.30;;;;;;899851;155;27423;-74
2023/06/29 03:06:17;;;;;;;3.60;3.30;;;16.80;69.40;;;;;;898195;155;27413;-74
2023/06/29 03:08:44;;;;;;;4.65;3.17;;;16.80;69.40;;;;;;899199;155;27506;-74
2023/06/29 03:11:10;;;;;;;4.67;3.22;;;16.80;69.60;;;;;;900276;155;27478;-74
2023/06/29 03:13:37;;;;;;;3.47;3.17;;;16.80;69.70;;;;;;900001;155;27382;-74
2023/06/29 03:16:04;;;;;;;3.83;3.53;;;16.80;69.90;;;;;;898299;155;27402;-74
2023/06/29 03:18:30;;;;;;;3.63;3.33;;;16.70;70.00;;;;;;898225;155;27485;-74
2023/06/29 03:20:57;;;;;;;4.93;3.20;;;16.70;70.00;;;;;;898319;155;27380;-74
2023/06/29 03:23:23;;;;;;;3.70;3.37;;;16.70;70.10;;;;;;900234;155;27491;-74
2023/06/29 03:25:50;;;;;;;4.42;3.35;;;16.70;70.20;;;;;;899293;155;27389;-74
2023/06/29 03:28:16;;;;;;;3.80;3.50;;;16.70;70.40;;;;;;900260;155;27501;-74
2023/06/29 03:30:43;;;;;;;3.90;3.60;;;16.70;70.60;;;;;;899858;155;27455;-74
2023/06/29 03:33:10;;;;;;;3.63;3.33;;;16.70;70.60;;;;;;898579;155;27384;-74
2023/06/29 03:35:36;;;;;;;3.50;3.20;;;16.70;70.70;;;;;;898334;155;27399;-74
2023/06/29 03:38:07;;;;;;;4.03;3.17;;;16.70;70.80;;;;;;899465;155;27467;-74
2023/06/29 03:40:29;;;;;;;4.67;3.45;;;16.70;71.00;;;;;;899885;155;27377;-74
2023/06/29 03:42:56;;;;;;;3.80;3.50;;;16.70;71.00;;;;;;899166;155;27319;-74
2023/06/29 03:45:23;;;;;;;5.50;3.73;;;16.80;71.20;;;;;;897546;155;27940;-74
2023/06/29 03:47:49;;;;;;;3.73;3.20;;;16.80;71.30;;;;;;898727;155;27374;-74
2023/06/29 03:50:16;;;;;;;3.70;3.37;;;16.80;71.40;;;;;;898657;155;27418;-74
2023/06/29 03:52:42;;;;;;;5.30;3.50;;;16.90;71.50;;;;;;898737;155;27486;-74
2023/06/29 03:55:09;;;;;;;3.60;3.30;;;16.90;71.60;;;;;;898061;155;27485;-74
2023/06/29 03:57:36;;;;;;;5.37;3.43;;;16.90;71.60;;;;;;898264;155;27493;-74
2023/06/29 04:00:03;;;;;;;3.72;3.42;;;16.90;71.60;;;;;;898751;155;27410;-74
2023/06/29 04:02:29;;;;;;;3.60;3.30;;;16.90;71.70;;;;;;897967;154;27399;-74
2023/06/29 04:04:55;;;;;;;3.47;3.07;;;17.00;71.70;;;;;;898679;155;27391;-74
2023/06/29 04:07:22;;;;;;;5.10;3.70;;;17.00;71.70;;;;;;897615;156;27380;-74
2023/06/29 04:09:49;;;;;;;3.93;3.63;;;17.00;71.70;;;;;;898910;155;27420;-74
2023/06/29 04:12:15;;;;;;;3.37;3.07;;;17.10;71.90;;;;;;897171;155;27479;-74
2023/06/29 04:14:42;;;;;;;3.22;3.02;;;17.10;71.90;;;;;;902088;155;27381;-74
2023/06/29 04:17:08;;;;;;;3.75;3.45;;;17.20;71.90;;;;;;898260;155;27383;-74
2023/06/29 04:19:35;;;;;;;3.17;2.98;;;17.30;72.00;;;;;;880008;158;27491;-74
2023/06/29 04:22:01;;;;;;;3.75;3.42;;;17.30;72.00;;;;;;890629;155;27514;-74
2023/06/29 04:24:28;;;;;;;5.58;3.08;;;17.40;72.10;;;;;;899845;155;27311;-74
2023/06/29 04:26:55;;;;;;;4.22;2.75;;;17.50;72.10;;;;;;899656;155;27388;-74
2023/06/29 04:29:21;;;;;;;3.52;3.20;;;17.50;72.10;;;;;;898023;155;27441;-74
2023/06/29 04:31:48;;;;;;;3.65;3.15;;;17.60;72.10;;;;;;899200;155;27416;-74
2023/06/29 04:34:17;;;;;;;4.75;3.33;;;17.70;72.10;;;;;;897625;155;27996;-74
2023/06/29 04:36:46;;;;;;;3.67;3.37;;;17.80;72.10;;;;;;897786;156;27454;-74
2023/06/29 04:39:08;;;;;;;4.20;3.47;;;17.90;72.10;;;;;;897344;155;27741;-74
2023/06/29 04:41:36;;;;;;;3.87;3.47;;;18.00;72.10;;;;;;896783;155;27431;-74
2023/06/29 04:44:01;;;;;;;3.33;3.10;;;18.10;72.00;;;;;;898629;155;27415;-74
2023/06/29 04:46:30;;;;;;;5.45;3.12;;;18.30;71.90;;;;;;900329;155;27404;-74
2023/06/29 04:48:57;;;;;;;2.92;2.72;;;18.40;71.80;;;;;;899444;155;27386;-74
2023/06/29 04:51:25;;;;;;;3.05;2.85;;;18.50;71.60;;;;;;898603;155;27933;-74
2023/06/29 04:53:50;;;;;;;3.27;2.87;;;18.60;71.40;;;;;;898549;155;27409;-74
2023/06/29 04:56:16;;;;;;;4.40;3.77;;;18.70;71.20;;;;;;898305;155;27731;-74
2023/06/29 04:58:43;;;;;;;3.95;3.65;;;18.90;71.40;;;;;;898297;155;27367;-74
2023/06/29 05:01:10;;;;;;;3.80;2.90;;;19.10;71.60;;;;;;900204;155;27474;-74
2023/06/29 05:03:36;;;;;;;3.52;3.17;;;19.30;72.40;;;;;;898167;155;27470;-74
2023/06/29 05:06:03;;;;;;;2.80;2.60;;;19.70;73.50;;;;;;900782;155;27491;-74
2023/06/29 05:08:29;;;;;;;6.87;3.00;;;20.20;74.20;;;;;;898759;155;27396;-74
2023/06/29 05:10:56;;;;;;;2.37;2.20;;;20.90;74.50;;;;;;898143;155;27358;-74
2023/06/29 05:13:22;;;;;;;3.40;2.60;;;21.60;74.10;;;;;;898870;155;27665;-74
2023/06/29 05:15:49;;;;;;;2.30;2.10;;;22.40;73.20;;;;;;899215;155;27386;-74
2023/06/29 05:18:16;;;;;;;2.70;2.12;;;23.20;72.10;;;;;;895323;155;27366;-74
2023/06/29 05:20:42;;;;;;;2.17;1.98;;;24.10;70.70;;;;;;896656;157;27307;-75
2023/06/29 05:23:12;;;;;;;2.15;1.95;;;24.90;69.40;;;;;;898593;158;27466;-75
2023/06/29 05:25:39;;;;;;;3.00;2.02;;;25.80;68.40;;;;;;898799;155;27525;-74
2023/06/29 05:28:05;;;;;;;1.82;1.72;;;26.60;67.00;;;;;;896748;155;27375;-74
2023/06/29 05:30:31;;;;;;;2.10;2.00;;;27.50;65.60;;;;;;897948;155;27469;-74
2023/06/29 05:32:58;;;;;;;3.90;2.47;;;28.40;63.90;;;;;;899122;155;27413;-75
2023/06/29 05:35:24;;;;;;;2.35;2.00;;;29.30;61.90;;;;;;898396;155;27519;-74
2023/06/29 05:37:51;;;;;;;2.37;2.17;;;30.10;59.90;;;;;;898608;155;27464;-74
2023/06/29 05:40:18;;;;;;;2.55;1.90;;;30.70;58.20;;;;;;900824;155;27371;-75
2023/06/29 05:42:44;;;;;;;2.47;2.25;;;31.30;56.80;;;;;;898176;155;27417;-74
2023/06/29 05:45:11;;;;;;;2.15;1.95;;;31.90;55.80;;;;;;895869;155;27409;-75
2023/06/29 05:47:37;;;;;;;2.62;2.05;;;32.40;54.80;;;;;;897025;157;27520;-75
2023/06/29 05:50:04;;;;;;;2.10;1.80;;;32.80;54.00;;;;;;899061;154;27848;-75
2023/06/29 05:52:33;;;;;;;2.20;1.92;;;33.30;53.30;;;;;;896745;155;27392;-74
2023/06/29 05:54:57;;;;;;;2.65;1.90;;;33.70;52.40;;;;;;898970;155;27375;-75
2023/06/29 05:57:24;;;;;;;3.80;1.67;;;34.10;51.60;;;;;;897668;155;27393;-75
2023/06/29 05:59:51;;;;;;;1.82;1.70;;;34.50;50.80;;;;;;899586;155;27492;-75
2023/06/29 06:02:17;;;;;;;2.35;1.60;;;34.90;50.20;;;;;;896833;155;26415;-75
2023/06/29 06:04:44;;;;;;;2.95;2.52;;;35.40;49.40;;;;;;899834;155;26305;-75
2023/06/29 06:07:10;;;;;;;3.47;2.77;;;35.70;48.70;;;;;;900535;155;26349;-75
2023/06/29 06:09:37;;;;;;;4.20;2.58;;;36.10;48.30;;;;;;899495;155;26320;-75
2023/06/29 06:12:05;;;;;;;2.02;1.90;;;36.40;47.60;;;;;;898723;155;26744;-75
2023/06/29 06:14:30;;;;;;;3.08;2.05;;;36.80;46.70;;;;;;895966;156;26288;-75
2023/06/29 06:16:56;;;;;;;2.60;2.40;;;37.20;46.00;;;;;;899563;155;26266;-75
2023/06/29 06:19:23;;;;;;;4.12;2.45;;;37.50;45.40;;;;;;898382;155;26352;-75
2023/06/29 06:21:50;;;;;;;2.20;2.00;;;37.70;45.10;;;;;;897481;155;26410;-75
2023/06/29 06:24:16;;;;;;;2.67;1.70;;;38.10;44.80;;;;;;898599;155;27328;-75
2023/06/29 06:26:43;;;;;;;2.75;1.80;;;38.40;44.40;;;;;;898147;155;26281;-75
2023/06/29 06:29:09;;;;;;;2.00;1.90;;;38.80;43.80;;;;;;898736;155;26268;-76
2023/06/29 06:31:36;;;;;;;2.72;2.00;;;39.10;43.10;;;;;;898895;155;26313;-76
2023/06/29 06:34:03;;;;;;;2.25;1.70;;;39.60;42.60;;;;;;900067;155;26345;-76
2023/06/29 06:36:30;;;;;;;3.47;1.60;;;40.00;42.20;;;;;;900569;155;26238;-76
2023/06/29 06:38:56;;;;;;;1.87;1.60;;;40.30;41.60;;;;;;899183;155;26779;-76
2023/06/29 06:41:22;;;;;;;1.65;1.45;;;40.70;41.00;;;;;;900757;155;26413;-76
2023/06/29 06:43:49;;;;;;;1.70;1.40;;;41.10;40.50;;;;;;897179;155;26343;-76
2023/06/29 06:46:16;;;;;;;1.72;1.50;;;41.50;39.70;;;;;;899959;155;26412;-76
2023/06/29 06:48:42;;;;;;;1.67;1.57;;;41.90;38.50;;;;;;898191;155;26280;-76
2023/06/29 06:51:09;;;;;;;1.77;1.32;;;42.30;38.30;;;;;;899631;155;26307;-76
2023/06/29 06:53:35;;;;;;;2.70;1.77;;;42.60;37.60;;;;;;900007;155;26394;-76
2023/06/29 06:56:02;;;;;;;2.15;1.40;;;42.90;37.00;;;;;;899021;155;26379;-76
2023/06/29 06:58:28;;;;;;;2.27;1.17;;;43.20;36.50;;;;;;899324;155;26378;-76
2023/06/29 07:00:55;;;;;;;1.67;1.50;;;43.50;36.10;;;;;;897595;155;26280;-76
2023/06/29 07:03:22;;;;;;;3.90;1.60;;;43.80;35.60;;;;;;900721;155;26281;-76
2023/06/29 07:05:48;;;;;;;3.00;1.35;;;44.10;35.10;;;;;;898135;155;26317;-76
2023/06/29 07:08:15;;;;;;;1.70;1.60;;;44.40;34.70;;;;;;898383;155;26250;-76
2023/06/29 07:10:41;;;;;;;4.83;1.80;;;44.70;34.10;;;;;;897755;155;26218;-76
2023/06/29 07:13:08;;;;;;;1.92;1.57;;;45.00;33.60;;;;;;896925;155;26317;-76
2023/06/29 07:15:35;;;;;;;2.17;1.40;;;45.40;33.10;;;;;;898798;155;26370;-76
2023/06/29 07:18:01;;;;;;;3.50;1.32;;;45.60;33.20;;;;;;899626;155;26268;-74
2023/06/29 07:20:28;;;;;;;1.82;1.37;;;45.90;32.20;;;;;;900411;155;26372;-74
2023/06/29 07:22:54;;;;;;;2.35;1.20;;;46.10;31.50;;;;;;897489;155;26320;-74
2023/06/29 07:25:21;;;;;;;1.37;1.27;;;46.30;31.30;;;;;;898198;155;26341;-75
2023/06/29 07:27:48;;;;;;;6.85;1.70;;;46.60;30.60;;;;;;898537;155;26798;-74
2023/06/29 07:30:14;;;;;;;3.02;1.32;;;46.70;30.30;;;;;;899293;155;26359;-74
2023/06/29 07:32:41;;;;;;;1.52;1.30;;;46.90;30.20;;;;;;897895;155;26276;-74
2023/06/29 07:35:07;;;;;;;1.90;1.60;;;47.10;30.00;;;;;;900356;155;26309;-74
2023/06/29 07:37:34;;;;;;;1.62;1.50;;;47.30;29.80;;;;;;899861;154;26337;-74
2023/06/29 07:40:02;;;;;;;1.25;1.15;;;47.50;29.70;;;;;;899368;155;26309;-74
2023/06/29 07:42:27;;;;;;;2.85;1.50;;;47.70;29.20;;;;;;894923;156;26298;-75
2023/06/29 07:44:54;;;;;;;2.70;1.45;;;47.90;29.00;;;;;;898359;155;26236;-75
2023/06/29 07:47:20;;;;;;;1.70;1.35;;;48.20;28.80;;;;;;899227;155;26313;-74
2023/06/29 07:49:47;;;;;;;1.80;1.50;;;48.30;28.30;;;;;;899670;155;26437;-74
2023/06/29 07:52:14;;;;;;;1.40;1.30;;;48.40;27.80;;;;;;897047;155;26379;-75
2023/06/29 07:54:40;;;;;;;1.45;1.35;;;48.40;27.50;;;;;;900009;155;26786;-74
2023/06/29 07:57:07;;;;;;;2.40;1.40;;;48.30;27.30;;;;;;899124;155;26297;-74
2023/06/29 07:59:33;;;;;;;2.70;1.55;;;48.20;27.20;;;;;;898616;155;26317;-74
2023/06/29 08:02:00;;;;;;;3.00;1.35;;;48.10;27.20;;;;;;898610;155;26277;-74
2023/06/29 08:04:26;;;;;;;1.75;1.22;;;48.00;27.20;;;;;;897537;158;26646;-74
2023/06/29 08:06:53;;;;;;;1.52;1.17;;;48.00;27.30;;;;;;899578;155;26294;-74
2023/06/29 08:09:20;;;;;;;1.40;1.30;;;48.10;27.20;;;;;;900127;157;26410;-74
2023/06/29 08:11:46;;;;;;;1.52;1.40;;;48.30;27.20;;;;;;898780;157;26289;-74
2023/06/29 08:14:13;;;;;;;1.10;1.10;;;48.50;26.90;;;;;;898709;155;26350;-74
2023/06/29 08:16:39;;;;;;;1.52;1.40;;;48.70;26.60;;;;;;897938;155;26353;-74
2023/06/29 08:19:06;;;;;;;1.35;1.12;;;48.80;26.40;;;;;;899678;155;26325;-74
2023/06/29 08:21:33;;;;;;;1.30;1.22;;;49.00;26.30;;;;;;899034;155;26323;-74
2023/06/29 08:23:59;;;;;;;1.52;1.20;;;49.20;26.10;;;;;;896099;156;26297;-74
2023/06/29 08:26:26;;;;;;;1.37;1.20;;;49.30;26.00;;;;;;899048;155;26300;-74
2023/06/29 08:28:52;;;;;;;1.62;1.40;;;49.50;25.80;;;;;;899851;155;26250;-74
2023/06/29 08:31:19;;;;;;;2.02;1.15;;;49.80;25.90;;;;;;899461;154;26308;-74
2023/06/29 08:33:46;;;;;;;1.35;1.12;;;50.00;25.50;;;;;;900626;155;26375;-74
2023/06/29 08:36:12;;;;;;;1.77;1.22;;;50.10;25.40;;;;;;898033;155;26277;-74
2023/06/29 08:38:39;;;;;;;1.60;1.02;;;50.40;25.10;;;;;;899203;155;26290;-74
2023/06/29 08:41:05;;;;;;;0.90;0.90;;;50.60;24.90;;;;;;897957;155;26376;-74
2023/06/29 08:43:32;;;;;;;2.22;1.42;;;50.70;24.90;;;;;;898100;155;26312;-74
2023/06/29 08:45:58;;;;;;;1.82;1.30;;;50.90;24.60;;;;;;899508;155;26209;-74
2023/06/29 08:48:26;;;;;;;1.17;1.00;;;51.20;24.40;;;;;;899303;157;26292;-74
2023/06/29 08:50:52;;;;;;;1.95;1.15;;;51.20;24.00;;;;;;897782;157;26285;-74
2023/06/29 08:53:18;;;;;;;1.92;1.25;;;51.20;24.00;;;;;;897194;155;26454;-74
2023/06/29 08:55:45;;;;;;;1.32;1.10;;;51.20;23.90;;;;;;895954;157;26281;-74
2023/06/29 08:58:11;;;;;;;1.07;0.90;;;51.20;23.80;;;;;;899094;155;26260;-74
2023/06/29 09:00:38;;;;;;;1.92;1.35;;;51.10;23.60;;;;;;896747;157;26316;-74
2023/06/29 09:03:05;;;;;;;1.50;0.80;;;51.10;23.70;;;;;;898721;155;26304;-74
2023/06/29 09:05:31;;;;;;;0.90;0.82;;;51.00;23.60;;;;;;897547;157;26395;-74
2023/06/29 09:07:58;;;;;;;1.55;1.00;;;51.00;23.60;;;;;;896322;155;26379;-74
2023/06/29 09:10:25;;;;;;;1.20;1.10;;;50.90;23.50;;;;;;900266;155;26283;-74
2023/06/29 09:12:52;;;;;;;1.10;1.10;;;50.80;23.40;;;;;;899197;157;26289;-75
2023/06/29 09:15:18;;;;;;;2.17;1.15;;;50.80;23.50;;;;;;897730;154;26307;-75
2023/06/29 09:17:47;;;;;;;2.62;1.00;;;50.70;23.50;;;;;;899087;155;26226;-75
2023/06/29 09:20:13;;;;;;;2.05;1.20;;;50.60;23.60;;;;;;899519;155;26327;-75
2023/06/29 09:22:40;;;;;;;1.17;1.15;;;50.60;23.50;;;;;;898565;155;26319;-75
2023/06/29 09:25:07;;;;;;;1.00;0.90;;;50.60;23.40;;;;;;895422;155;26337;-75
2023/06/29 09:27:36;;;;;;;1.40;0.90;;;50.60;23.20;;;;;;899036;155;26312;-75
2023/06/29 09:30:02;;;;;;;1.87;0.90;;;50.60;23.20;;;;;;899625;155;26442;-75
2023/06/29 09:32:29;;;;;;;1.10;0.90;;;50.50;23.10;;;;;;898805;155;26328;-75
2023/06/29 09:34:55;;;;;;;1.05;0.95;;;50.40;23.00;;;;;;896643;157;26451;-75
2023/06/29 09:37:22;;;;;;;2.90;1.17;;;50.30;23.10;;;;;;900746;155;26307;-75
2023/06/29 09:39:58;;;;;;;1.80;1.15;;;50.10;23.00;;;;;;896413;155;26313;-75
2023/06/29 09:42:24;;;;;;;1.15;0.93;;;50.00;23.00;;;;;;898105;155;26344;-74
2023/06/29 09:44:51;;;;;;;3.40;1.20;;;49.70;23.10;;;;;;897942;155;26403;-75
2023/06/29 09:47:17;;;;;;;1.20;1.00;;;49.50;23.20;;;;;;899364;155;26380;-75
2023/06/29 09:49:44;;;;;;;1.30;1.00;;;49.30;23.30;;;;;;898950;156;26292;-75
2023/06/29 09:52:10;;;;;;;1.07;0.95;;;49.00;23.10;;;;;;897283;155;26337;-76
2023/06/29 09:54:37;;;;;;;1.50;1.20;;;48.80;23.20;;;;;;899347;155;26312;-76
2023/06/29 09:57:04;;;;;;;0.60;0.60;;;48.60;23.30;;;;;;898291;154;26419;-76
2023/06/29 09:59:30;;;;;;;0.93;0.93;;;48.40;23.40;;;;;;897552;155;26414;-76
2023/06/29 10:01:57;;;;;;;1.65;1.30;;;48.10;23.50;;;;;;898127;155;26198;-76
2023/06/29 10:04:23;;;;;;;1.20;1.10;;;47.90;23.40;;;;;;898748;155;26423;-76
2023/06/29 10:06:59;;;;;;;1.07;0.98;;;47.70;23.40;;;;;;899539;155;26332;-76
2023/06/29 10:09:26;;;;;;;1.10;1.00;;;47.40;23.40;;;;;;903319;154;26390;-76
2023/06/29 10:11:52;;;;;;;1.47;1.25;;;47.00;23.70;;;;;;902369;157;26382;-76
2023/06/29 10:14:19;;;;;;;1.72;1.35;;;46.70;23.60;;;;;;898325;155;26318;-76
2023/06/29 10:16:45;;;;;;;1.50;1.40;;;46.30;23.60;;;;;;898988;155;26402;-76
2023/06/29 10:19:24;;;;;;;1.20;1.10;;;45.90;23.80;;;;;;897807;155;27470;-76
2023/06/29 10:21:54;;;;;;;1.10;1.10;;;45.50;23.80;;;;;;899577;154;26280;-76
2023/06/29 10:24:20;;;;;;;1.40;1.30;;;45.00;23.80;;;;;;898293;155;26281;-76
2023/06/29 10:26:47;;;;;;;4.70;1.27;;;44.40;23.90;;;;;;899612;155;26304;-76
2023/06/29 10:29:13;;;;;;;2.17;1.30;;;43.80;24.20;;;;;;900615;155;26405;-76
2023/06/29 10:31:39;;;;;;;1.37;1.27;;;43.30;24.50;;;;;;898688;155;26446;-76
2023/06/29 10:34:06;;;;;;;1.10;1.00;;;42.80;24.80;;;;;;896136;155;26356;-76
2023/06/29 10:36:45;;;;;;;1.42;1.32;;;42.50;25.00;;;;;;899159;155;27514;-76
2023/06/29 10:39:43;;;;;;;1.40;1.30;;;42.20;25.20;;;;;;897930;155;26427;-75
2023/06/29 10:42:23;;;;;;;1.37;1.05;;;41.80;25.30;;;;;;897428;155;26348;-75
2023/06/29 10:44:50;;;;;;;1.72;1.20;;;41.40;25.00;;;;;;889600;157;26288;-75
2023/06/29 10:47:28;;;;;;;1.45;1.30;;;41.10;25.70;;;;;;897215;155;26340;-75
2023/06/29 10:50:10;;;;;;;1.30;1.07;;;40.80;25.90;;;;;;898274;155;26417;-75
2023/06/29 10:52:36;;;;;;;1.12;1.12;;;40.50;26.40;;;;;;898854;158;26381;-75
2023/06/29 10:55:22;;;;;;;1.87;1.27;;;40.30;26.50;;;;;;897875;155;26302;-75
2023/06/29 10:57:48;;;;;;;1.00;0.93;;;40.10;26.60;;;;;;898313;155;26395;-76
2023/06/29 11:00:15;;;;;;;1.10;1.10;;;39.90;26.90;;;;;;899339;155;26297;-75
2023/06/29 11:02:42;;;;;;;1.12;1.02;;;39.80;26.90;;;;;;897999;155;26285;-76
2023/06/29 11:05:11;;;;;;;1.12;0.90;;;39.70;27.10;;;;;;899884;155;26343;-71
2023/06/29 11:07:38;;;;;;;0.93;0.93;;;39.70;27.30;;;;;;899584;155;27500;-71
2023/06/29 11:10:04;;;;;;;0.75;0.75;;;39.70;27.40;;;;;;898289;155;27380;-72
2023/06/29 11:12:31;;;;;;;0.80;0.80;;;39.70;27.30;;;;;;898703;155;26323;-71
2023/06/29 11:14:57;;;;;;;1.60;1.17;;;39.70;27.30;;;;;;899839;155;26397;-71
2023/06/29 11:17:24;;;;;;;1.05;1.05;;;39.70;27.30;;;;;;896784;155;26334;-71
2023/06/29 11:19:50;;;;;;;1.98;1.05;;;39.60;27.40;;;;;;897440;155;26352;-71
2023/06/29 11:22:20;;;;;;;1.32;1.07;;;39.50;27.40;;;;;;898539;155;26321;-71
2023/06/29 11:24:47;;;;;;;1.07;1.07;;;39.40;27.40;;;;;;897912;155;26409;-71
2023/06/29 11:27:18;;;;;;;1.50;1.40;;;39.30;27.60;;;;;;897332;155;26353;-71
2023/06/29 11:29:42;;;;;;;1.10;1.00;;;39.20;27.70;;;;;;898151;155;27563;-71
2023/06/29 11:32:12;;;;;;;1.95;1.30;;;39.10;27.70;;;;;;896911;155;26379;-71
2023/06/29 11:34:38;;;;;;;1.00;1.00;;;39.00;27.70;;;;;;898232;155;26369;-71
2023/06/29 11:37:05;;;;;;;1.40;1.10;;;38.90;27.90;;;;;;898412;155;26307;-71
2023/06/29 11:39:31;;;;;;;2.70;1.55;;;38.70;27.80;;;;;;899601;156;26257;-71
2023/06/29 11:41:58;;;;;;;1.32;1.22;;;38.60;28.00;;;;;;897926;155;26286;-71
2023/06/29 11:44:25;;;;;;;1.75;1.30;;;38.40;28.00;;;;;;901463;155;27518;-71
2023/06/29 11:46:52;;;;;;;1.30;1.20;;;38.20;28.20;;;;;;899083;155;26301;-71
2023/06/29 11:49:18;;;;;;;1.40;1.30;;;38.00;28.90;;;;;;897776;155;27321;-71
2023/06/29 11:51:44;;;;;;;1.42;1.32;;;37.80;28.60;;;;;;898179;155;27858;-72
2023/06/29 11:54:11;;;;;;;1.30;1.20;;;37.70;28.80;;;;;;898878;155;26378;-72
2023/06/29 11:56:38;;;;;;;1.60;1.50;;;37.50;28.90;;;;;;898766;157;27408;-71
2023/06/29 11:59:15;;;;;;;1.50;1.35;;;37.30;29.20;;;;;;899772;155;26238;-71
2023/06/29 12:01:39;;;;;;;1.75;1.65;;;37.20;29.00;;;;;;900967;155;27448;-72
2023/06/29 12:04:06;;;;;;;1.90;1.77;;;37.00;29.10;;;;;;899586;155;27508;-71
2023/06/29 12:06:36;;;;;;;2.22;1.80;;;36.90;29.90;;;;;;899798;155;27504;-71
2023/06/29 12:09:11;;;;;;;1.75;1.65;;;36.70;29.50;;;;;;899378;155;27451;-71
2023/06/29 12:11:39;;;;;;;2.87;1.70;;;36.50;29.70;;;;;;900509;155;27377;-72
2023/06/29 12:14:06;;;;;;;1.98;1.70;;;36.40;29.90;;;;;;898709;155;27375;-71
2023/06/29 12:16:31;;;;;;;1.80;1.70;;;36.20;30.00;;;;;;899828;155;27423;-71
2023/06/29 12:18:59;;;;;;;1.85;1.75;;;36.10;30.10;;;;;;900516;157;27355;-71
2023/06/29 12:21:24;;;;;;;1.60;1.50;;;36.00;30.20;;;;;;898565;155;27299;-71
2023/06/29 12:23:51;;;;;;;1.70;1.60;;;35.90;30.20;;;;;;899740;157;27357;-72
2023/06/29 12:26:19;;;;;;;2.00;1.50;;;35.80;30.30;;;;;;898751;157;27497;-71
2023/06/29 12:28:44;;;;;;;1.57;1.45;;;35.70;30.50;;;;;;898543;155;27393;-71
2023/06/29 12:31:12;;;;;;;1.57;1.45;;;35.60;30.60;;;;;;902025;158;27338;-71
2023/06/29 12:33:37;;;;;;;1.55;1.45;;;35.40;30.70;;;;;;899360;157;27507;-71
2023/06/29 12:36:04;;;;;;;1.07;1.07;;;35.30;30.80;;;;;;898538;157;27375;-71
2023/06/29 12:38:30;;;;;;;1.07;1.07;;;35.10;31.00;;;;;;898589;155;27416;-71
2023/06/29 12:40:57;;;;;;;1.40;1.30;;;34.80;31.10;;;;;;900367;155;27359;-71
2023/06/29 12:43:24;;;;;;;2.00;1.77;;;34.60;31.30;;;;;;888476;155;27406;-71
2023/06/29 12:45:50;;;;;;;1.80;1.40;;;34.40;31.60;;;;;;872663;160;27439;-71